METAR Formatted Surface Weather Observation
Issued by NWS Corpus Christi, TX

Home | Current Version | Previous Version | Text Only | Print | Product List | Glossary On
Versions: 1
000
SAUS44 KCRP 191525 COR
MTRVCT
METAR KVCT 191451Z COR 06004KT 10SM SCT110 23/19 A3012 RMK AO2
SLP196 T02280189 53010



USA.gov is the U.S. government's official web portal to all federal, state and local government web resources and services.